createdAt,value
2022-08-20T00:04:52.917Z,4.10
2022-08-20T00:10:15.170Z,4.47
2022-08-20T00:15:38.193Z,4.53
2022-08-20T00:21:00.029Z,4.15
2022-08-20T00:26:23.577Z,3.95
2022-08-20T00:31:45.395Z,4.20
2022-08-20T00:37:07.277Z,4.22
2022-08-20T00:42:29.095Z,4.28
2022-08-20T00:47:51.661Z,5.00
2022-08-20T00:53:14.003Z,3.95
2022-08-20T00:58:37.642Z,4.88
2022-08-20T01:03:59.565Z,5.05
2022-08-20T01:09:50.170Z,5.13
2022-08-20T01:15:06.439Z,4.57
2022-08-20T01:20:31.903Z,4.53
2022-08-20T01:26:09.479Z,4.23
2022-08-20T01:31:33.849Z,4.70
2022-08-20T01:36:58.285Z,4.65
2022-08-20T01:42:31.885Z,4.40
2022-08-20T01:47:53.715Z,4.38
2022-08-20T01:53:18.381Z,4.65
2022-08-20T01:58:45.030Z,4.63
2022-08-20T02:04:09.939Z,4.53
2022-08-20T02:09:38.599Z,4.68
2022-08-20T02:15:00.580Z,4.85
2022-08-20T02:20:28.609Z,4.55
2022-08-20T02:25:50.895Z,5.03
2022-08-20T02:31:12.714Z,5.32
2022-08-20T02:36:34.793Z,5.47
2022-08-20T02:41:56.626Z,4.90
2022-08-20T02:47:18.695Z,4.75
2022-08-20T02:52:41.550Z,4.93
2022-08-20T02:58:13.516Z,5.78
2022-08-20T03:03:35.376Z,5.35
2022-08-20T03:08:57.246Z,5.55
2022-08-20T03:14:19.460Z,5.40
2022-08-20T03:19:41.288Z,5.43
2022-08-20T03:25:05.036Z,5.40
2022-08-20T03:30:28.530Z,6.10
2022-08-20T03:35:50.377Z,5.93
2022-08-20T03:41:12.218Z,5.88
2022-08-20T03:46:35.138Z,5.63
2022-08-20T03:51:57.645Z,5.72
2022-08-20T03:57:20.198Z,5.47
2022-08-20T04:02:42.057Z,5.95
2022-08-20T04:08:04.225Z,6.10
2022-08-20T04:13:29.841Z,5.47
2022-08-20T04:24:31.530Z,5.93
2022-08-20T04:29:54.563Z,5.60
2022-08-20T04:35:16.899Z,6.32
2022-08-20T04:40:38.727Z,6.20
2022-08-20T04:46:04.180Z,5.63
2022-08-20T04:51:26.916Z,6.47
2022-08-20T04:56:48.897Z,6.10
2022-08-20T05:02:10.751Z,5.70
2022-08-20T05:07:45.953Z,6.53
2022-08-20T05:13:08.888Z,6.93
2022-08-20T05:18:31.820Z,6.65
2022-08-20T05:23:53.673Z,5.88
2022-08-20T05:29:16.689Z,6.65
2022-08-20T05:34:38.480Z,5.90
2022-08-20T05:40:00.354Z,6.47
2022-08-20T05:45:24.545Z,6.70
2022-08-20T05:50:48.199Z,6.25
2022-08-20T05:56:10.038Z,6.53
2022-08-20T06:01:34.196Z,6.40
2022-08-20T06:07:06.866Z,6.77
2022-08-20T06:12:28.643Z,6.43
2022-08-20T06:17:58.232Z,6.72
2022-08-20T06:23:20.548Z,6.45
2022-08-20T06:28:42.385Z,5.72
2022-08-20T06:34:04.275Z,5.97
2022-08-20T06:39:27.922Z,6.82
2022-08-20T06:44:49.756Z,6.38
2022-08-20T06:50:17.133Z,6.32
2022-08-20T06:55:48.494Z,6.35
2022-08-20T07:01:12.383Z,6.25
2022-08-20T07:06:34.565Z,6.35
2022-08-20T07:11:56.424Z,6.15
2022-08-20T07:17:18.243Z,6.35
2022-08-20T07:22:40.724Z,6.57
2022-08-20T07:28:11.513Z,6.25
2022-08-20T07:33:33.962Z,5.82
2022-08-20T07:38:56.858Z,5.97
2022-08-20T07:44:18.832Z,5.80
2022-08-20T07:49:40.725Z,5.30
2022-08-20T07:55:04.825Z,5.93
2022-08-20T08:00:26.683Z,5.75
2022-08-20T08:05:50.379Z,5.88
2022-08-20T08:11:12.272Z,5.65
2022-08-20T08:16:36.547Z,5.28
2022-08-20T08:21:58.747Z,5.25
2022-08-20T08:27:20.703Z,5.03
2022-08-20T08:32:43.083Z,6.00
2022-08-20T08:38:04.965Z,5.45
2022-08-20T08:43:31.198Z,5.07
2022-08-20T08:48:57.893Z,5.53
2022-08-20T08:54:22.456Z,5.60
2022-08-20T09:00:03.465Z,5.95
2022-08-20T09:05:34.929Z,5.50
2022-08-20T09:11:06.028Z,5.15
2022-08-20T09:16:27.995Z,4.63
2022-08-20T09:21:57.907Z,3.97
2022-08-20T09:27:19.913Z,4.38
2022-08-20T09:32:42.457Z,4.60
2022-08-20T09:38:04.437Z,4.30
2022-08-20T09:43:26.314Z,4.43
2022-08-20T09:48:48.155Z,4.47
2022-08-20T09:54:10.016Z,4.47
2022-08-20T09:59:33.567Z,4.00
2022-08-20T10:04:55.663Z,4.38
2022-08-20T10:10:19.422Z,4.80
2022-08-20T10:15:41.891Z,4.68
2022-08-20T10:21:09.993Z,4.40
2022-08-20T10:26:31.815Z,4.43
2022-08-20T10:31:54.265Z,4.15
2022-08-20T10:37:17.836Z,4.60
2022-08-20T10:42:42.583Z,4.65
2022-08-20T10:48:04.804Z,4.30
2022-08-20T10:53:26.977Z,5.18
2022-08-20T10:58:48.810Z,4.97
2022-08-20T11:04:10.671Z,4.53
2022-08-20T11:09:32.521Z,4.40
2022-08-20T11:14:54.887Z,4.60
2022-08-20T11:20:19.557Z,4.43
2022-08-20T11:25:41.445Z,5.07
2022-08-20T11:31:03.278Z,5.00
2022-08-20T11:36:25.159Z,4.40
2022-08-20T11:41:46.984Z,4.47
2022-08-20T11:47:24.005Z,4.40
2022-08-20T11:52:45.939Z,4.15
2022-08-20T11:58:09.341Z,4.25
2022-08-20T12:03:31.133Z,4.88
2022-08-20T12:08:52.921Z,4.10
2022-08-20T12:14:14.794Z,4.90
2022-08-20T12:19:38.504Z,5.18
2022-08-20T12:25:00.377Z,4.43
2022-08-20T12:30:23.866Z,4.28
2022-08-20T12:35:45.758Z,4.28
2022-08-20T12:41:07.599Z,4.20
2022-08-20T12:46:29.484Z,3.65
2022-08-20T12:51:51.357Z,4.10
2022-08-20T12:57:23.040Z,4.47
2022-08-20T13:02:44.945Z,4.68
2022-08-20T13:08:09.735Z,4.72
2022-08-20T13:13:31.528Z,4.07
2022-08-20T13:18:53.382Z,4.35
2022-08-20T13:24:15.230Z,4.57
2022-08-20T13:29:37.590Z,4.68
2022-08-20T13:34:59.649Z,4.15
2022-08-20T13:40:21.790Z,4.75
2022-08-20T13:45:43.732Z,4.53
2022-08-20T13:51:07.055Z,4.35
2022-08-20T13:56:28.981Z,4.70
2022-08-20T14:01:50.886Z,3.95
2022-08-20T14:07:18.606Z,3.90
2022-08-20T14:12:40.670Z,4.28
2022-08-20T14:18:03.570Z,4.57
2022-08-20T14:23:25.409Z,4.05
2022-08-20T14:28:47.230Z,3.95
2022-08-20T14:34:09.061Z,5.28
2022-08-20T14:39:30.863Z,4.03
2022-08-20T14:44:53.067Z,5.03
2022-08-20T14:50:21.321Z,4.60
2022-08-20T14:55:43.247Z,4.85
2022-08-20T15:01:05.229Z,4.47
2022-08-20T15:06:27.212Z,4.50
2022-08-20T15:11:49.873Z,4.93
2022-08-20T15:17:18.953Z,4.65
2022-08-20T15:22:41.967Z,4.22
2022-08-20T15:28:04.788Z,4.30
2022-08-20T15:33:26.663Z,4.07
2022-08-20T15:38:48.506Z,4.18
2022-08-20T15:44:10.357Z,4.75
2022-08-20T15:49:32.467Z,4.50
2022-08-20T15:54:55.058Z,4.30
2022-08-20T16:00:25.530Z,4.45
2022-08-20T16:05:56.250Z,4.30
2022-08-20T16:11:46.145Z,4.60
2022-08-20T16:17:12.868Z,4.57
2022-08-20T16:22:37.152Z,4.10
2022-08-20T16:28:25.108Z,4.25
2022-08-20T16:34:34.833Z,4.32
2022-08-20T16:40:18.097Z,4.22
2022-08-20T16:46:11.162Z,4.20
2022-08-20T16:51:51.388Z,4.78
2022-08-20T16:57:17.389Z,4.28
2022-08-20T17:08:31.203Z,4.57
2022-08-20T17:14:04.985Z,4.30
2022-08-20T17:19:32.126Z,4.60
2022-08-20T17:24:54.927Z,4.88
2022-08-20T17:30:27.088Z,3.83
2022-08-20T17:35:53.641Z,4.28
2022-08-20T17:41:30.864Z,4.65
2022-08-20T17:46:53.765Z,4.05
2022-08-20T17:52:33.003Z,4.32
2022-08-20T17:57:59.366Z,3.92
2022-08-20T18:03:25.815Z,4.60
2022-08-20T18:08:57.194Z,4.32
2022-08-20T18:14:25.831Z,3.85
2022-08-20T18:20:24.988Z,4.15
2022-08-20T18:25:57.576Z,3.97
2022-08-20T18:31:29.695Z,3.30
2022-08-20T18:37:00.197Z,3.50
2022-08-20T18:42:34.248Z,3.67
2022-08-20T18:47:56.492Z,3.72
2022-08-20T18:53:34.259Z,3.58
2022-08-20T18:59:17.485Z,3.40
2022-08-20T19:04:39.308Z,4.13
2022-08-20T19:10:34.425Z,3.58
2022-08-20T19:16:07.890Z,3.80
2022-08-20T19:21:33.055Z,3.35
2022-08-20T19:27:02.228Z,3.70
2022-08-20T19:32:27.412Z,3.70
2022-08-20T19:37:51.011Z,3.30
2022-08-20T19:43:19.597Z,3.30
2022-08-20T19:49:06.807Z,3.08
2022-08-20T19:54:29.306Z,3.20
2022-08-20T19:59:57.375Z,3.30
2022-08-20T20:05:19.330Z,3.05
2022-08-20T20:10:41.216Z,3.20
2022-08-20T20:16:04.430Z,3.22
2022-08-20T20:21:42.208Z,3.00
2022-08-20T20:27:09.014Z,3.70
2022-08-20T20:32:41.049Z,3.10
2022-08-20T20:38:06.372Z,3.05
2022-08-20T20:43:35.771Z,3.23
2022-08-20T20:49:08.759Z,3.03
2022-08-20T20:54:41.190Z,3.17
2022-08-20T21:00:05.546Z,2.80
2022-08-20T21:05:28.849Z,2.77
2022-08-20T21:10:50.694Z,3.25
2022-08-20T21:16:12.719Z,2.65
2022-08-20T21:21:36.061Z,3.15
2022-08-20T21:26:59.003Z,3.38
2022-08-20T21:32:21.449Z,3.00
2022-08-20T21:37:43.774Z,3.63
2022-08-20T21:43:06.123Z,3.30
2022-08-20T21:48:27.975Z,2.92
2022-08-20T21:53:49.948Z,2.83
2022-08-20T21:59:12.210Z,3.10
2022-08-20T22:04:35.604Z,2.88
2022-08-20T22:09:57.710Z,2.97
2022-08-20T22:15:19.802Z,3.15
2022-08-20T22:20:42.765Z,3.25
2022-08-20T22:26:04.583Z,2.90
2022-08-20T22:31:30.386Z,3.25
2022-08-20T22:36:54.523Z,2.88
2022-08-20T22:42:16.414Z,3.22
2022-08-20T22:47:38.341Z,2.90
2022-08-20T22:53:01.784Z,3.00
2022-08-20T22:58:30.346Z,3.35
2022-08-20T23:03:53.361Z,3.78
2022-08-20T23:09:15.374Z,3.78
2022-08-20T23:14:43.068Z,3.10
2022-08-20T23:20:10.964Z,3.33
2022-08-20T23:25:33.724Z,3.53
2022-08-20T23:30:55.567Z,3.47
2022-08-20T23:36:19.944Z,3.63
2022-08-20T23:41:47.588Z,3.30
2022-08-20T23:47:14.349Z,3.80
2022-08-20T23:52:36.577Z,3.40
2022-08-20T23:57:58.668Z,3.97
